Time;durP1;ratioP1;P1;durP2;ratioP2;P2;SDS_P1;SDS_P2;PMS_P1;PMS_P2;Temp;Humidity;BMP_temperature;BMP_pressure;BME280_temperature;BME280_humidity;BME280_pressure;Samples;Min_cycle;Max_cycle;Signal;HPM_P1;HPM_P2
2021/08/11 00:01:02;;;;;;;19.10;10.68;;;;;;;;;;4946600;29;20052;-83
2021/08/11 00:03:29;;;;;;;23.30;11.20;;;;;;;;;;4925729;29;20062;-83
2021/08/11 00:05:56;;;;;;;20.13;11.82;;;;;;;;;;4914243;29;20103;-83
2021/08/11 00:08:23;;;;;;;21.70;11.35;;;;;;;;;;4914249;29;20080;-83
2021/08/11 00:10:51;;;;;;;22.45;12.07;;;;;;;;;;4904516;29;20131;-83
2021/08/11 00:13:21;;;;;;;23.80;12.25;;;;;;;;;;4922670;29;20520;-83
2021/08/11 00:15:48;;;;;;;22.90;12.02;;;;;;;;;;4946554;29;20134;-83
2021/08/11 00:18:15;;;;;;;28.55;12.93;;;;;;;;;;4922384;29;20139;-83
2021/08/11 00:20:43;;;;;;;24.38;12.77;;;;;;;;;;4917865;29;20083;-83
2021/08/11 00:23:10;;;;;;;21.25;12.60;;;;;;;;;;4915260;29;20059;-83
2021/08/11 00:25:37;;;;;;;27.70;13.52;;;;;;;;;;4904534;29;20139;-83
2021/08/11 00:28:05;;;;;;;30.33;12.85;;;;;;;;;;4921761;29;20453;-83
2021/08/11 00:30:32;;;;;;;29.85;13.57;;;;;;;;;;4927262;29;20080;-83
2021/08/11 00:33:01;;;;;;;27.75;13.68;;;;;;;;;;4912905;29;20051;-83
2021/08/11 00:35:28;;;;;;;25.67;13.35;;;;;;;;;;4916695;29;20572;-83
2021/08/11 00:37:56;;;;;;;29.08;13.30;;;;;;;;;;4932629;29;20094;-83
2021/08/11 00:40:24;;;;;;;37.90;14.73;;;;;;;;;;4928616;29;20556;-83
2021/08/11 00:42:52;;;;;;;29.83;13.85;;;;;;;;;;4910751;29;20150;-83
2021/08/11 00:45:20;;;;;;;26.55;14.55;;;;;;;;;;4906368;29;20850;-83
2021/08/11 00:47:50;;;;;;;32.90;15.68;;;;;;;;;;4926362;29;20052;-83
2021/08/11 00:50:18;;;;;;;25.77;14.30;;;;;;;;;;4922976;29;20083;-83
2021/08/11 00:52:47;;;;;;;29.48;15.27;;;;;;;;;;4914636;29;20560;-83
2021/08/11 00:55:15;;;;;;;29.23;14.20;;;;;;;;;;4919747;29;20083;-83
2021/08/11 00:57:43;;;;;;;28.50;14.52;;;;;;;;;;4909090;29;20643;-83
2021/08/11 01:00:10;;;;;;;29.52;15.25;;;;;;;;;;4934411;29;20054;-84
2021/08/11 01:02:38;;;;;;;29.77;15.63;;;;;;;;;;4915979;29;20146;-83
2021/08/11 01:05:07;;;;;;;29.52;15.20;;;;;;;;;;4935279;29;20484;-82
2021/08/11 01:07:35;;;;;;;30.98;14.82;;;;;;;;;;4906824;29;20091;-83
2021/08/11 01:10:04;;;;;;;34.85;15.88;;;;;;;;;;4930434;29;20076;-83
2021/08/11 01:12:32;;;;;;;31.90;15.43;;;;;;;;;;4929367;29;20083;-83
2021/08/11 01:15:02;;;;;;;26.75;15.23;;;;;;;;;;4935433;29;20052;-83
2021/08/11 01:17:29;;;;;;;33.55;15.88;;;;;;;;;;4922342;29;20048;-83
2021/08/11 01:19:57;;;;;;;37.25;14.98;;;;;;;;;;4919442;29;20127;-83
2021/08/11 01:22:30;;;;;;;36.17;15.57;;;;;;;;;;4928745;29;20086;-83
2021/08/11 01:25:11;;;;;;;32.70;15.85;;;;;;;;;;4934719;29;20075;-83
2021/08/11 01:27:45;;;;;;;35.30;17.25;;;;;;;;;;4934106;29;20147;-82
2021/08/11 01:30:21;;;;;;;32.75;17.15;;;;;;;;;;4932564;29;20162;-83
2021/08/11 01:32:48;;;;;;;36.85;16.65;;;;;;;;;;4949316;29;20102;-82
2021/08/11 01:35:18;;;;;;;37.58;16.70;;;;;;;;;;4913751;29;20056;-82
2021/08/11 01:37:50;;;;;;;34.47;16.67;;;;;;;;;;4917004;29;20071;-83
2021/08/11 01:40:18;;;;;;;42.10;18.60;;;;;;;;;;4914911;29;20131;-82
2021/08/11 01:42:46;;;;;;;38.85;18.02;;;;;;;;;;4917869;29;20055;-82
2021/08/11 01:45:16;;;;;;;35.13;18.73;;;;;;;;;;4916241;29;20134;-83
2021/08/11 01:47:53;;;;;;;36.38;17.05;;;;;;;;;;4932043;29;20509;-82
2021/08/11 01:50:22;;;;;;;37.53;18.10;;;;;;;;;;4918201;29;20056;-82
2021/08/11 01:52:50;;;;;;;41.00;18.42;;;;;;;;;;4931743;29;20404;-82
2021/08/11 01:55:20;;;;;;;35.15;18.00;;;;;;;;;;4922728;29;20757;-83
2021/08/11 01:57:51;;;;;;;46.92;19.25;;;;;;;;;;4924685;29;20044;-83
2021/08/11 02:00:19;;;;;;;36.13;17.00;;;;;;;;;;4947305;29;20126;-83
2021/08/11 02:02:47;;;;;;;36.85;18.15;;;;;;;;;;4928118;29;20071;-83
2021/08/11 02:05:16;;;;;;;40.65;18.15;;;;;;;;;;4920694;29;20408;-82
2021/08/11 02:07:43;;;;;;;43.60;17.50;;;;;;;;;;4921566;29;20481;-83
2021/08/11 02:10:12;;;;;;;38.90;19.13;;;;;;;;;;4933333;29;20083;-83
2021/08/11 02:12:39;;;;;;;37.22;17.85;;;;;;;;;;4916089;29;20493;-83
2021/08/11 02:15:07;;;;;;;37.83;18.35;;;;;;;;;;4934973;29;20058;-83
2021/08/11 02:17:37;;;;;;;40.28;19.52;;;;;;;;;;4924974;29;20063;-82
2021/08/11 02:20:05;;;;;;;47.55;19.75;;;;;;;;;;4928406;29;20501;-82
2021/08/11 02:22:32;;;;;;;43.33;18.60;;;;;;;;;;4926365;29;20052;-82
2021/08/11 02:25:02;;;;;;;46.15;20.30;;;;;;;;;;4917003;29;20083;-82
2021/08/11 02:27:32;;;;;;;45.38;19.77;;;;;;;;;;4948455;29;20140;-83
2021/08/11 02:30:03;;;;;;;50.03;19.55;;;;;;;;;;4932444;29;20537;-83
2021/08/11 02:32:49;;;;;;;42.33;19.55;;;;;;;;;;4913983;29;20457;-82
2021/08/11 02:35:19;;;;;;;43.10;18.98;;;;;;;;;;4914926;29;20054;-82
2021/08/11 02:37:50;;;;;;;43.88;19.60;;;;;;;;;;4916241;29;20151;-82
2021/08/11 02:40:23;;;;;;;51.75;20.40;;;;;;;;;;4911835;29;20048;-82
2021/08/11 02:42:58;;;;;;;50.15;20.35;;;;;;;;;;4916943;29;20119;-82
2021/08/11 02:47:57;;;;;;;45.55;20.52;;;;;;;;;;4932945;29;19923;-82
2021/08/11 02:50:24;;;;;;;46.83;21.35;;;;;;;;;;4934144;29;20143;-82
2021/08/11 02:52:52;;;;;;;50.75;20.20;;;;;;;;;;4911832;29;20134;-82
2021/08/11 02:55:21;;;;;;;57.30;23.75;;;;;;;;;;4911266;29;20087;-82
2021/08/11 02:57:49;;;;;;;53.78;22.13;;;;;;;;;;4921694;29;20685;-83
2021/08/11 03:00:17;;;;;;;56.80;22.60;;;;;;;;;;4934505;29;20090;-82
2021/08/11 03:02:44;;;;;;;49.80;21.67;;;;;;;;;;4933535;29;20047;-82
2021/08/11 03:05:15;;;;;;;57.75;23.02;;;;;;;;;;4910826;29;20055;-82
2021/08/11 03:07:43;;;;;;;60.28;23.35;;;;;;;;;;4947494;29;20142;-82
2021/08/11 03:10:11;;;;;;;60.17;23.05;;;;;;;;;;4917074;29;20073;-82
2021/08/11 03:12:38;;;;;;;56.55;22.52;;;;;;;;;;4920300;29;20082;-82
2021/08/11 03:15:07;;;;;;;57.92;24.42;;;;;;;;;;4929434;29;20496;-82
2021/08/11 03:17:34;;;;;;;58.65;24.73;;;;;;;;;;4923974;29;20831;-82
2021/08/11 03:20:01;;;;;;;52.03;23.77;;;;;;;;;;4947229;28;20083;-82
2021/08/11 03:22:32;;;;;;;63.83;24.77;;;;;;;;;;4947585;29;20051;-82
2021/08/11 03:24:59;;;;;;;68.88;23.13;;;;;;;;;;4926996;29;20044;-82
2021/08/11 03:27:27;;;;;;;60.85;24.80;;;;;;;;;;4914985;29;20466;-82
2021/08/11 03:29:54;;;;;;;57.40;24.30;;;;;;;;;;4922498;29;20110;-82
2021/08/11 03:32:22;;;;;;;57.58;24.23;;;;;;;;;;4917199;29;20170;-82
2021/08/11 03:34:49;;;;;;;62.00;23.80;;;;;;;;;;4927867;29;20079;-82
2021/08/11 03:37:17;;;;;;;61.85;25.30;;;;;;;;;;4917334;29;20139;-82
2021/08/11 03:39:44;;;;;;;68.55;26.45;;;;;;;;;;4923053;29;20150;-82
2021/08/11 03:42:11;;;;;;;63.95;27.15;;;;;;;;;;4937869;29;20139;-82
2021/08/11 03:44:38;;;;;;;67.75;26.08;;;;;;;;;;4910791;29;20138;-82
2021/08/11 03:47:06;;;;;;;66.28;26.23;;;;;;;;;;4907642;29;20087;-82
2021/08/11 03:49:33;;;;;;;63.13;25.92;;;;;;;;;;4919609;29;20081;-82
2021/08/11 03:52:00;;;;;;;70.63;27.13;;;;;;;;;;4933172;29;20147;-82
2021/08/11 03:54:27;;;;;;;65.20;26.35;;;;;;;;;;4915821;29;20155;-82
2021/08/11 03:56:54;;;;;;;69.70;27.13;;;;;;;;;;4919724;29;20079;-83
2021/08/11 03:59:23;;;;;;;67.85;27.55;;;;;;;;;;4912290;29;20083;-83
2021/08/11 04:01:53;;;;;;;80.25;29.98;;;;;;;;;;4931622;29;20074;-83
2021/08/11 04:04:22;;;;;;;79.38;29.10;;;;;;;;;;4936216;29;20110;-82
2021/08/11 04:06:49;;;;;;;84.63;30.67;;;;;;;;;;4912388;29;20086;-81
2021/08/11 04:09:17;;;;;;;79.50;29.92;;;;;;;;;;4923195;29;20122;-82
2021/08/11 04:11:45;;;;;;;79.18;28.75;;;;;;;;;;4932901;29;20110;-83
2021/08/11 04:14:14;;;;;;;81.03;30.10;;;;;;;;;;4947358;29;20127;-82
2021/08/11 04:16:41;;;;;;;86.45;30.95;;;;;;;;;;4946603;28;20064;-82
2021/08/11 04:19:11;;;;;;;85.45;32.03;;;;;;;;;;4932334;29;20083;-82
2021/08/11 04:21:38;;;;;;;90.20;32.28;;;;;;;;;;4930499;29;20110;-82
2021/08/11 04:24:05;;;;;;;82.78;30.48;;;;;;;;;;4926810;29;20095;-82
2021/08/11 04:26:32;;;;;;;77.63;30.83;;;;;;;;;;4925744;29;20131;-82
2021/08/11 04:28:59;;;;;;;82.22;30.67;;;;;;;;;;4916327;29;20052;-83
2021/08/11 04:31:26;;;;;;;89.55;30.75;;;;;;;;;;4947035;28;20142;-82
2021/08/11 04:33:54;;;;;;;77.32;30.00;;;;;;;;;;4926922;29;20626;-81
2021/08/11 04:36:21;;;;;;;86.20;30.58;;;;;;;;;;4935150;29;20075;-81
2021/08/11 04:38:48;;;;;;;83.40;32.00;;;;;;;;;;4933133;29;20524;-82
2021/08/11 04:41:15;;;;;;;89.32;31.55;;;;;;;;;;4919789;29;20055;-82
2021/08/11 04:43:50;;;;;;;78.90;31.65;;;;;;;;;;4926006;29;20723;-81
2021/08/11 04:46:17;;;;;;;92.25;32.40;;;;;;;;;;4922932;29;20143;-82
2021/08/11 04:48:44;;;;;;;88.38;31.80;;;;;;;;;;4932283;29;20059;-81
2021/08/11 04:51:11;;;;;;;85.80;31.88;;;;;;;;;;4931389;29;20433;-80
2021/08/11 04:53:38;;;;;;;81.00;30.50;;;;;;;;;;4918268;29;20079;-82
2021/08/11 04:56:06;;;;;;;87.25;30.73;;;;;;;;;;4913014;29;20532;-79
2021/08/11 04:58:33;;;;;;;88.90;31.85;;;;;;;;;;4924291;29;20107;-80
2021/08/11 05:01:00;;;;;;;85.88;32.72;;;;;;;;;;4932580;29;20433;-80
2021/08/11 05:03:29;;;;;;;85.63;31.45;;;;;;;;;;4934720;29;20055;-80
2021/08/11 05:05:56;;;;;;;84.30;32.65;;;;;;;;;;4935248;29;20054;-83
2021/08/11 05:08:27;;;;;;;80.60;30.77;;;;;;;;;;4923943;29;20103;-84
2021/08/11 05:10:55;;;;;;;88.43;31.27;;;;;;;;;;4920213;29;20047;-81
2021/08/11 05:13:23;;;;;;;79.30;31.10;;;;;;;;;;4936530;29;20126;-83
2021/08/11 05:15:51;;;;;;;81.60;31.05;;;;;;;;;;4938535;29;20068;-83
2021/08/11 05:18:19;;;;;;;84.32;30.90;;;;;;;;;;4922081;29;20055;-82
2021/08/11 05:20:48;;;;;;;86.05;30.73;;;;;;;;;;4936006;29;20644;-84
2021/08/11 05:23:17;;;;;;;81.72;30.05;;;;;;;;;;4902045;29;20072;-84
2021/08/11 05:25:45;;;;;;;80.38;30.40;;;;;;;;;;4918947;29;20140;-79
2021/08/11 05:28:13;;;;;;;77.40;29.20;;;;;;;;;;4917529;29;20050;-86
2021/08/11 05:30:43;;;;;;;74.07;29.25;;;;;;;;;;4915460;29;20135;-85
2021/08/11 05:33:10;;;;;;;72.43;29.23;;;;;;;;;;4934742;29;20052;-85
2021/08/11 05:35:37;;;;;;;76.88;30.77;;;;;;;;;;4932495;29;20572;-85
2021/08/11 05:38:05;;;;;;;80.45;30.58;;;;;;;;;;4925613;29;20048;-85
2021/08/11 05:40:32;;;;;;;80.13;29.98;;;;;;;;;;4942719;29;20055;-85
2021/08/11 05:43:01;;;;;;;67.35;29.83;;;;;;;;;;4930884;29;20140;-84
2021/08/11 05:45:28;;;;;;;71.18;29.10;;;;;;;;;;4915059;29;20154;-85
2021/08/11 05:47:55;;;;;;;68.63;29.08;;;;;;;;;;4918240;29;20048;-85
2021/08/11 05:50:24;;;;;;;78.60;30.92;;;;;;;;;;4916143;29;20473;-84
2021/08/11 05:52:57;;;;;;;81.95;30.70;;;;;;;;;;4917742;29;20059;-85
2021/08/11 05:55:24;;;;;;;70.38;29.13;;;;;;;;;;4917898;29;20448;-84
2021/08/11 05:57:52;;;;;;;71.88;29.80;;;;;;;;;;4949658;29;20700;-84
2021/08/11 06:00:20;;;;;;;71.57;27.75;;;;;;;;;;4931900;29;20086;-85
2021/08/11 06:02:51;;;;;;;69.00;28.27;;;;;;;;;;4930707;29;20437;-84
2021/08/11 06:05:20;;;;;;;61.95;25.58;;;;;;;;;;4928834;29;20102;-84
2021/08/11 06:07:47;;;;;;;68.65;27.02;;;;;;;;;;4915723;29;20741;-83
2021/08/11 06:10:14;;;;;;;67.50;27.63;;;;;;;;;;4924752;29;20132;-84
2021/08/11 06:12:42;;;;;;;55.58;26.63;;;;;;;;;;4935908;29;20441;-84
2021/08/11 06:15:09;;;;;;;62.78;26.45;;;;;;;;;;4950474;29;20075;-83
2021/08/11 06:17:46;;;;;;;61.72;26.42;;;;;;;;;;4926538;29;20433;-83
2021/08/11 06:20:14;;;;;;;70.00;26.20;;;;;;;;;;4934857;29;20102;-84
2021/08/11 06:22:42;;;;;;;58.63;27.00;;;;;;;;;;4918895;29;20047;-84
2021/08/11 06:25:09;;;;;;;62.58;28.17;;;;;;;;;;4949417;29;20098;-83
2021/08/11 06:27:37;;;;;;;60.10;26.83;;;;;;;;;;4913679;29;20871;-83
2021/08/11 06:30:10;;;;;;;65.38;26.20;;;;;;;;;;4919177;29;20063;-84
2021/08/11 06:32:38;;;;;;;68.63;25.23;;;;;;;;;;4918463;29;20078;-85
2021/08/11 06:35:07;;;;;;;57.22;24.35;;;;;;;;;;4914721;29;20059;-84
2021/08/11 06:37:41;;;;;;;58.83;24.25;;;;;;;;;;4920607;29;20140;-85
2021/08/11 06:40:12;;;;;;;63.75;24.27;;;;;;;;;;4933759;29;20052;-84
2021/08/11 06:42:39;;;;;;;55.45;24.23;;;;;;;;;;4918164;29;20048;-83
2021/08/11 06:45:07;;;;;;;53.97;23.42;;;;;;;;;;4918955;29;20131;-84
2021/08/11 06:47:36;;;;;;;52.05;22.35;;;;;;;;;;4945905;28;20131;-84
2021/08/11 06:50:04;;;;;;;50.20;21.80;;;;;;;;;;4933568;29;20098;-84
2021/08/11 06:52:33;;;;;;;60.53;24.05;;;;;;;;;;4918723;29;20103;-85
2021/08/11 06:55:06;;;;;;;52.80;22.70;;;;;;;;;;4922617;29;20044;-84
2021/08/11 06:57:33;;;;;;;56.55;23.15;;;;;;;;;;4950269;28;20719;-84
2021/08/11 07:00:02;;;;;;;47.10;21.70;;;;;;;;;;4918013;29;20093;-84
2021/08/11 07:02:29;;;;;;;58.92;22.45;;;;;;;;;;4927205;29;20047;-83
2021/08/11 07:04:57;;;;;;;41.95;21.80;;;;;;;;;;4935791;29;20082;-84
2021/08/11 07:07:24;;;;;;;41.08;21.05;;;;;;;;;;4947309;29;20437;-84
2021/08/11 07:09:52;;;;;;;45.75;20.10;;;;;;;;;;4945772;29;20542;-84
2021/08/11 07:12:20;;;;;;;39.92;20.13;;;;;;;;;;4911835;29;20135;-84
2021/08/11 07:14:48;;;;;;;43.60;18.60;;;;;;;;;;4922152;29;20048;-84
2021/08/11 07:17:16;;;;;;;44.10;18.70;;;;;;;;;;4913422;29;20059;-85
2021/08/11 07:19:44;;;;;;;39.47;18.85;;;;;;;;;;4918649;29;20048;-84
2021/08/11 07:22:12;;;;;;;40.08;20.38;;;;;;;;;;4915630;29;20496;-84
2021/08/11 07:24:44;;;;;;;41.67;21.83;;;;;;;;;;4917664;29;20502;-85
2021/08/11 07:27:11;;;;;;;51.40;22.60;;;;;;;;;;4919728;29;20500;-85
2021/08/11 07:29:38;;;;;;;59.38;21.70;;;;;;;;;;4900509;29;20083;-85
2021/08/11 07:32:07;;;;;;;58.83;22.48;;;;;;;;;;4925611;29;20102;-85
2021/08/11 07:34:34;;;;;;;50.70;21.80;;;;;;;;;;4919055;29;20079;-84
2021/08/11 07:37:02;;;;;;;44.85;21.45;;;;;;;;;;4931145;29;20135;-85
2021/08/11 07:39:29;;;;;;;44.30;21.23;;;;;;;;;;4932956;29;20056;-84
2021/08/11 07:41:56;;;;;;;44.88;21.83;;;;;;;;;;4917140;29;20784;-84
2021/08/11 07:44:24;;;;;;;45.95;20.77;;;;;;;;;;4932204;29;20079;-84
2021/08/11 07:46:51;;;;;;;46.70;21.10;;;;;;;;;;4914819;29;20059;-83
2021/08/11 07:49:18;;;;;;;44.65;19.38;;;;;;;;;;4933482;29;20162;-84
2021/08/11 07:51:45;;;;;;;36.00;19.88;;;;;;;;;;4913249;29;20147;-85
2021/08/11 07:54:14;;;;;;;42.20;19.73;;;;;;;;;;4911187;29;20182;-84
2021/08/11 07:56:42;;;;;;;37.75;19.90;;;;;;;;;;4917481;29;20047;-83
2021/08/11 07:59:09;;;;;;;39.72;19.00;;;;;;;;;;4948839;28;20150;-84
2021/08/11 08:01:37;;;;;;;46.78;18.92;;;;;;;;;;4946397;29;20083;-84
2021/08/11 08:04:04;;;;;;;34.13;17.30;;;;;;;;;;4948482;29;20135;-83
2021/08/11 08:06:31;;;;;;;36.15;17.45;;;;;;;;;;4942979;28;20111;-84
2021/08/11 08:08:58;;;;;;;28.75;14.77;;;;;;;;;;4919616;29;20571;-84
2021/08/11 08:11:25;;;;;;;28.13;14.70;;;;;;;;;;4911978;29;20079;-84
2021/08/11 08:13:53;;;;;;;23.10;13.77;;;;;;;;;;4942979;29;20134;-84
2021/08/11 08:16:20;;;;;;;27.80;13.15;;;;;;;;;;4921357;29;20052;-84
2021/08/11 08:18:47;;;;;;;23.98;11.10;;;;;;;;;;4911625;29;20835;-84
2021/08/11 08:21:14;;;;;;;19.35;12.27;;;;;;;;;;4944786;29;20066;-84
2021/08/11 08:23:45;;;;;;;23.17;11.73;;;;;;;;;;4926934;29;20868;-83
2021/08/11 08:26:14;;;;;;;24.35;11.38;;;;;;;;;;4926353;29;20832;-84
2021/08/11 08:28:45;;;;;;;23.35;11.02;;;;;;;;;;4932516;29;20082;-82
2021/08/11 08:31:13;;;;;;;23.02;11.57;;;;;;;;;;4923893;29;20082;-84
2021/08/11 08:33:42;;;;;;;22.95;11.07;;;;;;;;;;4918649;29;20047;-84
2021/08/11 08:36:10;;;;;;;19.35;10.25;;;;;;;;;;4946421;29;20173;-83
2021/08/11 08:38:37;;;;;;;23.90;10.45;;;;;;;;;;4923794;29;20166;-85
2021/08/11 08:41:12;;;;;;;16.30;8.63;;;;;;;;;;4901434;29;20059;-85
2021/08/11 08:43:48;;;;;;;16.15;8.13;;;;;;;;;;4943763;28;20471;-85
2021/08/11 08:46:20;;;;;;;17.65;7.75;;;;;;;;;;4930104;29;20477;-85
2021/08/11 08:48:47;;;;;;;17.75;8.93;;;;;;;;;;4932338;29;20098;-85
2021/08/11 08:51:14;;;;;;;17.70;8.20;;;;;;;;;;4920214;29;20140;-85
2021/08/11 08:53:45;;;;;;;17.02;8.13;;;;;;;;;;4938002;29;20482;-85
2021/08/11 08:56:12;;;;;;;19.33;8.43;;;;;;;;;;4898041;29;20132;-86
2021/08/11 08:58:40;;;;;;;19.08;9.00;;;;;;;;;;4925939;29;20135;-85
2021/08/11 09:01:10;;;;;;;16.23;8.35;;;;;;;;;;4913440;29;20385;-85
2021/08/11 09:03:37;;;;;;;18.23;7.57;;;;;;;;;;4913635;29;20365;-85
2021/08/11 09:06:07;;;;;;;11.27;7.32;;;;;;;;;;4912004;29;20058;-85
2021/08/11 09:08:35;;;;;;;12.23;6.85;;;;;;;;;;4921580;29;20051;-84
2021/08/11 09:11:13;;;;;;;15.00;7.57;;;;;;;;;;4902413;29;20103;-85
2021/08/11 09:13:43;;;;;;;14.40;7.10;;;;;;;;;;4921483;29;20130;-84
2021/08/11 09:16:15;;;;;;;11.80;8.13;;;;;;;;;;4929338;29;20079;-85
2021/08/11 09:18:51;;;;;;;18.55;8.48;;;;;;;;;;4919858;29;20862;-85
2021/08/11 09:21:19;;;;;;;19.48;7.07;;;;;;;;;;4907973;29;20465;-85
2021/08/11 09:23:50;;;;;;;16.02;6.72;;;;;;;;;;4911992;29;20075;-86
2021/08/11 09:26:17;;;;;;;11.10;6.00;;;;;;;;;;4932347;29;20457;-86
2021/08/11 09:28:46;;;;;;;9.18;5.43;;;;;;;;;;4910374;29;20052;-87
2021/08/11 09:31:19;;;;;;;11.98;5.15;;;;;;;;;;4926294;29;20055;-86
2021/08/11 09:33:53;;;;;;;11.15;5.57;;;;;;;;;;4915716;29;20044;-86
2021/08/11 09:36:20;;;;;;;14.02;5.22;;;;;;;;;;4911538;29;20130;-85
2021/08/11 09:38:54;;;;;;;10.38;5.25;;;;;;;;;;4931275;29;20144;-86
2021/08/11 09:41:25;;;;;;;18.75;7.03;;;;;;;;;;4939581;29;20071;-87
2021/08/11 09:44:13;;;;;;;13.52;5.53;;;;;;;;;;4921296;29;20083;-85
2021/08/11 09:46:42;;;;;;;11.27;6.22;;;;;;;;;;4918430;29;20078;-83
2021/08/11 09:49:13;;;;;;;13.57;5.28;;;;;;;;;;4935697;29;20552;-84
2021/08/11 09:51:58;;;;;;;11.80;6.72;;;;;;;;;;4918640;29;20078;-85
2021/08/11 09:54:31;;;;;;;11.82;5.88;;;;;;;;;;4909048;29;20130;-85
2021/08/11 09:56:59;;;;;;;7.35;5.07;;;;;;;;;;4916001;29;20075;-84
2021/08/11 09:59:27;;;;;;;8.60;4.50;;;;;;;;;;4950478;29;20056;-85
2021/08/11 10:02:15;;;;;;;16.67;5.10;;;;;;;;;;4931076;29;20497;-85
2021/08/11 10:04:43;;;;;;;7.88;5.85;;;;;;;;;;4916645;29;20056;-85
2021/08/11 10:07:13;;;;;;;16.05;6.57;;;;;;;;;;4920041;29;20150;-85
2021/08/11 10:09:44;;;;;;;10.15;5.43;;;;;;;;;;4914968;29;20048;-85
2021/08/11 10:12:32;;;;;;;13.32;6.18;;;;;;;;;;4922598;29;20255;-86
2021/08/11 10:15:02;;;;;;;8.27;5.70;;;;;;;;;;4950681;28;20078;-84
2021/08/11 10:17:31;;;;;;;8.80;5.28;;;;;;;;;;4944659;28;20059;-84
2021/08/11 10:19:59;;;;;;;9.43;5.43;;;;;;;;;;4949341;29;20154;-84
2021/08/11 10:22:29;;;;;;;11.55;5.80;;;;;;;;;;4931808;29;20055;-83
2021/08/11 10:24:57;;;;;;;9.82;5.47;;;;;;;;;;4943985;29;20090;-85
2021/08/11 10:27:24;;;;;;;8.32;5.47;;;;;;;;;;4945036;29;20472;-85
2021/08/11 10:29:52;;;;;;;9.55;4.90;;;;;;;;;;4950628;28;20122;-85
2021/08/11 10:32:21;;;;;;;11.13;5.18;;;;;;;;;;4918176;29;20075;-85
2021/08/11 10:34:49;;;;;;;10.25;5.47;;;;;;;;;;4949042;28;20107;-85
2021/08/11 10:37:17;;;;;;;9.65;4.72;;;;;;;;;;4934434;29;20123;-85
2021/08/11 10:39:44;;;;;;;11.10;4.55;;;;;;;;;;4919399;29;20051;-84
2021/08/11 10:42:17;;;;;;;8.45;4.65;;;;;;;;;;4932585;29;20119;-86
2021/08/11 10:44:56;;;;;;;9.07;5.20;;;;;;;;;;4920535;29;20111;-85
2021/08/11 10:47:28;;;;;;;8.10;4.80;;;;;;;;;;4931457;29;20071;-82
2021/08/11 10:49:56;;;;;;;7.38;4.88;;;;;;;;;;4934411;29;20527;-83
2021/08/11 10:52:24;;;;;;;10.35;5.22;;;;;;;;;;4907678;29;20143;-84
2021/08/11 10:55:05;;;;;;;12.38;5.85;;;;;;;;;;4949418;28;20626;-84
2021/08/11 10:57:35;;;;;;;12.00;5.03;;;;;;;;;;4926982;29;20048;-84
2021/08/11 11:00:07;;;;;;;7.53;4.72;;;;;;;;;;4930409;29;20048;-83
2021/08/11 11:02:40;;;;;;;10.32;5.03;;;;;;;;;;4930400;29;20469;-83
2021/08/11 11:05:27;;;;;;;10.90;4.75;;;;;;;;;;4930363;29;20055;-83
2021/08/11 11:08:13;;;;;;;8.88;5.00;;;;;;;;;;4929481;29;20122;-84
2021/08/11 11:10:46;;;;;;;6.82;4.65;;;;;;;;;;4930407;29;20047;-84
2021/08/11 11:13:29;;;;;;;10.65;4.47;;;;;;;;;;4934275;29;20047;-84
2021/08/11 11:15:56;;;;;;;8.43;4.85;;;;;;;;;;4917943;29;20079;-85
2021/08/11 11:18:26;;;;;;;7.68;4.30;;;;;;;;;;4927468;29;20072;-84
2021/08/11 11:20:57;;;;;;;9.10;3.88;;;;;;;;;;4932125;29;20062;-81
2021/08/11 11:23:34;;;;;;;8.98;3.70;;;;;;;;;;4925209;29;20554;-83
2021/08/11 11:26:05;;;;;;;17.70;5.03;;;;;;;;;;4931955;29;20053;-86
2021/08/11 11:28:52;;;;;;;8.77;4.18;;;;;;;;;;4911102;29;20123;-85
2021/08/11 11:31:28;;;;;;;8.30;4.45;;;;;;;;;;4938959;29;20083;-88
2021/08/11 11:34:15;;;;;;;6.15;3.67;;;;;;;;;;4929128;29;20130;-87
2021/08/11 11:36:53;;;;;;;4.93;3.45;;;;;;;;;;4913467;29;20047;-87
2021/08/11 11:39:26;;;;;;;7.30;4.50;;;;;;;;;;4942141;29;20099;-87
2021/08/11 11:42:24;;;;;;;8.93;4.28;;;;;;;;;;4928338;29;20083;-86
2021/08/11 11:44:54;;;;;;;11.05;4.50;;;;;;;;;;4900818;29;20564;-85
2021/08/11 11:47:44;;;;;;;8.88;3.72;;;;;;;;;;4932218;29;20086;-86
2021/08/11 11:50:28;;;;;;;8.55;4.55;;;;;;;;;;4917219;29;20110;-86
2021/08/11 11:52:59;;;;;;;8.93;3.70;;;;;;;;;;4921171;29;20071;-87
2021/08/11 11:55:31;;;;;;;8.05;4.13;;;;;;;;;;4917500;29;20051;-86
2021/08/11 11:58:08;;;;;;;11.48;4.15;;;;;;;;;;4928575;29;20055;-86
2021/08/11 12:00:36;;;;;;;9.98;4.28;;;;;;;;;;4907603;29;20111;-86
2021/08/11 12:03:05;;;;;;;8.32;4.13;;;;;;;;;;4933564;29;20078;-86
2021/08/11 12:05:52;;;;;;;7.80;4.60;;;;;;;;;;4925807;29;20059;-86
2021/08/11 12:08:21;;;;;;;5.45;4.05;;;;;;;;;;4927435;29;20052;-86
2021/08/11 12:11:00;;;;;;;7.65;4.95;;;;;;;;;;4920094;29;20485;-88
2021/08/11 12:13:41;;;;;;;7.07;4.45;;;;;;;;;;4901045;29;20052;-86
2021/08/11 12:16:13;;;;;;;7.47;4.95;;;;;;;;;;4897267;29;20060;-87
2021/08/11 12:18:42;;;;;;;7.18;4.07;;;;;;;;;;4922027;29;20055;-87
2021/08/11 12:21:13;;;;;;;11.35;4.82;;;;;;;;;;4928137;29;20131;-85
2021/08/11 12:23:41;;;;;;;9.55;5.00;;;;;;;;;;4910203;29;20576;-87
2021/08/11 12:26:13;;;;;;;9.40;4.20;;;;;;;;;;4933177;29;20142;-86
2021/08/11 12:28:46;;;;;;;9.23;4.35;;;;;;;;;;4914970;29;20074;-86
2021/08/11 12:31:17;;;;;;;8.18;4.40;;;;;;;;;;4929271;29;20056;-87
2021/08/11 12:33:53;;;;;;;7.72;4.35;;;;;;;;;;4924291;29;20091;-91
2021/08/11 12:36:31;;;;;;;;;;;;;;;;;;4926115;29;20052;-93
2021/08/11 12:39:17;;;;;;;9.25;4.40;;;;;;;;;;4921578;29;19947;-92
2021/08/11 12:42:01;;;;;;;5.68;4.10;;;;;;;;;;4917879;29;20055;-92
2021/08/11 12:44:32;;;;;;;8.13;4.43;;;;;;;;;;4917477;29;20080;-90
2021/08/11 12:47:01;;;;;;;9.30;4.90;;;;;;;;;;4950149;28;20158;-92
2021/08/11 12:49:41;;;;;;;18.55;4.95;;;;;;;;;;4950335;29;20058;-91
2021/08/11 12:52:09;;;;;;;11.52;4.95;;;;;;;;;;4919965;29;20087;-91
2021/08/11 12:55:08;;;;;;;6.80;4.63;;;;;;;;;;4953033;29;20047;-94
2021/08/11 12:57:46;;;;;;;6.60;4.20;;;;;;;;;;4923920;29;20079;-93
2021/08/11 13:00:19;;;;;;;7.72;4.53;;;;;;;;;;4930777;29;20144;-89
2021/08/11 13:02:48;;;;;;;7.72;3.95;;;;;;;;;;4931715;29;20054;-92
2021/08/11 13:05:19;;;;;;;12.25;4.68;;;;;;;;;;4938275;29;20111;-93
2021/08/11 13:07:50;;;;;;;8.75;4.80;;;;;;;;;;4923115;29;20051;-92
2021/08/11 13:10:19;;;;;;;8.05;4.03;;;;;;;;;;4934170;29;20416;-92
2021/08/11 13:12:48;;;;;;;12.75;4.80;;;;;;;;;;4912536;29;20055;-93
2021/08/11 13:15:25;;;;;;;8.48;4.28;;;;;;;;;;4938753;29;20476;-93
2021/08/11 13:18:00;;;;;;;9.68;4.50;;;;;;;;;;4925622;29;20047;-93
2021/08/11 13:20:35;;;;;;;6.38;4.00;;;;;;;;;;4923118;29;20047;-92
2021/08/11 13:23:07;;;;;;;8.55;4.20;;;;;;;;;;4923969;29;20060;-93
2021/08/11 13:25:38;;;;;;;7.97;3.92;;;;;;;;;;4946008;28;20082;-91
2021/08/11 13:28:08;;;;;;;13.45;4.53;;;;;;;;;;4925406;29;20055;-90
2021/08/11 13:30:37;;;;;;;5.97;3.80;;;;;;;;;;4952955;28;20048;-90
2021/08/11 13:33:06;;;;;;;11.25;4.03;;;;;;;;;;4922453;29;20052;-90
2021/08/11 13:35:34;;;;;;;9.23;4.80;;;;;;;;;;4921944;29;20087;-90
2021/08/11 13:38:07;;;;;;;8.77;4.57;;;;;;;;;;4922180;29;20142;-92
2021/08/11 13:40:37;;;;;;;10.35;4.60;;;;;;;;;;4952919;29;20585;-91
2021/08/11 13:43:05;;;;;;;6.93;4.15;;;;;;;;;;4921841;29;20110;-91
2021/08/11 13:45:33;;;;;;;7.60;4.47;;;;;;;;;;4954060;28;20086;-90
2021/08/11 13:48:05;;;;;;;8.18;4.93;;;;;;;;;;4953441;28;20468;-92
2021/08/11 13:50:33;;;;;;;6.93;4.50;;;;;;;;;;4952982;29;20052;-91
2021/08/11 13:53:00;;;;;;;6.80;4.30;;;;;;;;;;4914455;29;20139;-90
2021/08/11 13:55:28;;;;;;;9.55;4.25;;;;;;;;;;4933323;29;20756;-90
2021/08/11 13:57:55;;;;;;;10.38;4.70;;;;;;;;;;4937201;29;20052;-91
2021/08/11 14:00:25;;;;;;;6.80;4.40;;;;;;;;;;4936850;29;20123;-90
2021/08/11 14:02:52;;;;;;;10.50;4.43;;;;;;;;;;4936684;29;20115;-91
2021/08/11 14:05:21;;;;;;;6.55;4.38;;;;;;;;;;4921091;29;20083;-92
2021/08/11 14:10:42;;;;;;;8.50;5.03;;;;;;;;;;4926020;29;20079;-92
2021/08/11 14:13:14;;;;;;;6.82;4.30;;;;;;;;;;4928636;29;20051;-91
2021/08/11 14:15:42;;;;;;;13.38;5.18;;;;;;;;;;4927485;29;20078;-92
2021/08/11 14:18:09;;;;;;;10.75;4.45;;;;;;;;;;4928529;29;20063;-92
2021/08/11 14:20:39;;;;;;;12.10;4.65;;;;;;;;;;4936068;29;20556;-89
2021/08/11 14:23:06;;;;;;;6.25;4.20;;;;;;;;;;4918253;29;20066;-87
2021/08/11 14:25:33;;;;;;;10.77;5.22;;;;;;;;;;4929887;29;20147;-87
2021/08/11 14:28:01;;;;;;;9.85;4.97;;;;;;;;;;4922651;29;20524;-86
2021/08/11 14:30:29;;;;;;;11.07;5.07;;;;;;;;;;4927619;29;20067;-87
2021/08/11 14:32:58;;;;;;;9.63;4.93;;;;;;;;;;4931348;29;20119;-87
2021/08/11 14:35:28;;;;;;;9.20;4.70;;;;;;;;;;4920365;29;20568;-88
2021/08/11 14:37:55;;;;;;;11.18;5.10;;;;;;;;;;4918606;29;20079;-88
2021/08/11 14:40:22;;;;;;;10.40;4.72;;;;;;;;;;4936747;29;20087;-88
2021/08/11 14:42:49;;;;;;;6.13;4.38;;;;;;;;;;4936124;29;20060;-87
2021/08/11 14:45:17;;;;;;;9.05;4.57;;;;;;;;;;4936296;29;20099;-88
2021/08/11 14:47:50;;;;;;;8.07;4.72;;;;;;;;;;4927315;29;20055;-88